Impacts METAR Board
IDs:

KSLC - Salt Lake City Intl, UT, US

Updated at: 1800 UTC 02 Oct 2022
Potential Impact None Slight Moderate High
Time 02/06Z 02/07Z 02/08Z 02/09Z 02/10Z 02/11Z 02/12Z 02/13Z 02/14Z 02/15Z 02/16Z 02/17Z 02/18Z
Temp59 58 57 57 56 56 54 53 53 58 62 66 68
Dewpt42 48 47 46 47 46 45 44 42 41 41 41 42
Altim30.04 30.05 30.04 30.05 30.05 30.05 30.06 30.07 30.09 30.10 30.11 30.11 30.11
VIS10 10 10 10 10 10 10 10 10 10 10 10 10
CIG180 180 180 180 180 110 -- 180 260 260 190 180 200
CoverBKNBKNBKNBKNBKNBKNSCTBKNBKNBKNBKNBKNBKN
FltCatVFRVFRVFRVFRVFRVFRVFRVFRVFRVFRVFRVFRVFR
WX--------------------------
WDir2001027002402101401501501301300330
WSpd3 5 7 0 4 4 6 3 5 6 6 0 4
WGst-- -- -- -- -- -- -- -- -- -- -- -- --
Raw hourly METARs
KSLC 020554Z 20003KT 10SM FEW100 BKN180 15/06 A3004 RMK AO2 SLP138 T01500056 10217 20144 50004 $
KSLC 020654Z 01005KT 10SM SCT120 BKN180 14/09 A3005 RMK AO2 RAB33E37 SLP137 P0000 T01440089 402220111 $
KSLC 020754Z 27007KT 10SM FEW110 BKN180 14/08 A3004 RMK AO2 SLP136 T01390083 $
KSLC 020854Z 00000KT 10SM FEW120 BKN180 14/08 A3005 RMK AO2 SLP138 60000 T01390078 53002 $
KSLC 020954Z 24004KT 10SM SCT110 BKN180 13/08 A3005 RMK AO2 SLP136 T01330083 $
KSLC 021054Z 21004KT 10SM BKN110 BKN180 13/08 A3005 RMK AO2 SLP139 T01330078 $
KSLC 021154Z 14006KT 10SM FEW110 SCT180 12/07 A3006 RMK AO2 SLP143 60000 T01220072 10156 20122 53004 $
KSLC 021254Z 15003KT 10SM FEW110 BKN180 12/07 A3007 RMK AO2 SLP149 T01170067 $
KSLC 021354Z 15005KT 10SM FEW110 SCT190 BKN260 12/06 A3009 RMK AO2 SLP156 T01170056 $
KSLC 021454Z 13006KT 10SM FEW100 SCT190 BKN260 14/05 A3010 RMK AO2 SLP161 T01440050 53012 $
KSLC 021554Z 13006KT 10SM SCT100 BKN190 BKN260 17/05 A3011 RMK AO2 SLP161 T01670050 $
KSLC 021654Z 00000KT 10SM SCT110 BKN180 BKN260 19/05 A3011 RMK AO2 SLP161 T01890050 $
KSLC 021754Z 33004KT 10SM SCT120 BKN200 BKN260 20/06 A3011 RMK AO2 SLP159 T02000056 10206 20117 50003 $



Page loaded:  18:22 UTC  |   11:22 AM Pacific  |   12:22 PM Mountain  |   01:22 PM Central  |   02:22 PM Eastern

 

ADVISORIES

FORECASTS

FORECASTS

OBSERVATIONS

USER TOOLS

ABOUT US